sensor_id;sensor_type;location;lat;lon;timestamp;temperature;humidity
21722;DHT22;11023;48.274;7.794;2023-12-22T00:00:16;10.20;99.90
21722;DHT22;11023;48.274;7.794;2023-12-22T00:02:42;10.20;99.90
21722;DHT22;11023;48.274;7.794;2023-12-22T00:05:10;10.20;99.90
21722;DHT22;11023;48.274;7.794;2023-12-22T00:07:36;10.20;99.90
21722;DHT22;11023;48.274;7.794;2023-12-22T00:10:02;10.30;99.90
21722;DHT22;11023;48.274;7.794;2023-12-22T00:12:28;10.30;99.90
21722;DHT22;11023;48.274;7.794;2023-12-22T00:14:54;10.40;99.90
21722;DHT22;11023;48.274;7.794;2023-12-22T00:17:19;10.40;99.90
21722;DHT22;11023;48.274;7.794;2023-12-22T00:19:47;10.40;99.90
21722;DHT22;11023;48.274;7.794;2023-12-22T00:22:16;10.40;99.90
21722;DHT22;11023;48.274;7.794;2023-12-22T00:24:44;10.40;99.90
21722;DHT22;11023;48.274;7.794;2023-12-22T00:27:12;10.40;99.90
21722;DHT22;11023;48.274;7.794;2023-12-22T00:30:08;10.40;99.90
21722;DHT22;11023;48.274;7.794;2023-12-22T00:32:37;10.50;99.90
21722;DHT22;11023;48.274;7.794;2023-12-22T00:35:08;10.50;99.90
21722;DHT22;11023;48.274;7.794;2023-12-22T00:37:39;10.50;99.90
21722;DHT22;11023;48.274;7.794;2023-12-22T00:40:12;10.50;99.90
21722;DHT22;11023;48.274;7.794;2023-12-22T00:42:38;10.50;99.90
21722;DHT22;11023;48.274;7.794;2023-12-22T00:45:04;10.50;99.90
21722;DHT22;11023;48.274;7.794;2023-12-22T00:47:29;10.50;99.90
21722;DHT22;11023;48.274;7.794;2023-12-22T00:49:58;10.50;99.90
21722;DHT22;11023;48.274;7.794;2023-12-22T00:52:27;10.50;99.90
21722;DHT22;11023;48.274;7.794;2023-12-22T00:54:53;10.50;99.90
21722;DHT22;11023;48.274;7.794;2023-12-22T00:57:19;10.50;99.90
21722;DHT22;11023;48.274;7.794;2023-12-22T00:59:45;10.50;99.90
21722;DHT22;11023;48.274;7.794;2023-12-22T01:02:22;10.50;99.90
21722;DHT22;11023;48.274;7.794;2023-12-22T01:05:08;10.50;99.90
21722;DHT22;11023;48.274;7.794;2023-12-22T01:07:36;10.40;99.90
21722;DHT22;11023;48.274;7.794;2023-12-22T01:10:06;10.40;99.90
21722;DHT22;11023;48.274;7.794;2023-12-22T01:12:32;10.30;99.90
21722;DHT22;11023;48.274;7.794;2023-12-22T01:14:57;10.30;99.90
21722;DHT22;11023;48.274;7.794;2023-12-22T01:17:23;10.30;99.90
21722;DHT22;11023;48.274;7.794;2023-12-22T01:19:51;10.30;99.90
21722;DHT22;11023;48.274;7.794;2023-12-22T01:22:17;10.30;99.90
21722;DHT22;11023;48.274;7.794;2023-12-22T01:24:43;10.20;99.90
21722;DHT22;11023;48.274;7.794;2023-12-22T01:27:13;10.30;99.90
21722;DHT22;11023;48.274;7.794;2023-12-22T01:29:39;10.30;99.90
21722;DHT22;11023;48.274;7.794;2023-12-22T01:32:05;10.30;99.90
21722;DHT22;11023;48.274;7.794;2023-12-22T01:34:31;10.30;99.90
21722;DHT22;11023;48.274;7.794;2023-12-22T01:36:57;10.30;99.90
21722;DHT22;11023;48.274;7.794;2023-12-22T01:39:25;10.40;99.90
21722;DHT22;11023;48.274;7.794;2023-12-22T01:41:51;10.40;99.90
21722;DHT22;11023;48.274;7.794;2023-12-22T01:44:16;10.30;99.90
21722;DHT22;11023;48.274;7.794;2023-12-22T01:46:45;10.40;99.90
21722;DHT22;11023;48.274;7.794;2023-12-22T01:49:12;10.40;99.90
21722;DHT22;11023;48.274;7.794;2023-12-22T01:51:42;10.40;99.90
21722;DHT22;11023;48.274;7.794;2023-12-22T01:54:10;10.40;99.90
21722;DHT22;11023;48.274;7.794;2023-12-22T01:56:41;10.30;99.90
21722;DHT22;11023;48.274;7.794;2023-12-22T01:59:13;10.20;99.90
21722;DHT22;11023;48.274;7.794;2023-12-22T02:01:40;10.20;99.90
21722;DHT22;11023;48.274;7.794;2023-12-22T02:04:09;10.10;99.90
21722;DHT22;11023;48.274;7.794;2023-12-22T02:06:34;10.10;99.90
21722;DHT22;11023;48.274;7.794;2023-12-22T02:09:04;10.10;99.90
21722;DHT22;11023;48.274;7.794;2023-12-22T02:11:30;10.10;99.90
21722;DHT22;11023;48.274;7.794;2023-12-22T02:13:56;10.10;99.90
21722;DHT22;11023;48.274;7.794;2023-12-22T02:19:09;10.00;99.90
21722;DHT22;11023;48.274;7.794;2023-12-22T02:22:02;10.00;99.90
21722;DHT22;11023;48.274;7.794;2023-12-22T02:24:31;10.00;99.90
21722;DHT22;11023;48.274;7.794;2023-12-22T02:27:10;10.00;99.90
21722;DHT22;11023;48.274;7.794;2023-12-22T02:30:23;10.10;99.90
21722;DHT22;11023;48.274;7.794;2023-12-22T02:32:41;10.10;99.90
21722;DHT22;11023;48.274;7.794;2023-12-22T02:35:14;10.10;99.90
21722;DHT22;11023;48.274;7.794;2023-12-22T02:37:40;10.10;99.90
21722;DHT22;11023;48.274;7.794;2023-12-22T02:40:17;10.20;99.90
21722;DHT22;11023;48.274;7.794;2023-12-22T02:42:45;10.20;99.90
21722;DHT22;11023;48.274;7.794;2023-12-22T02:45:15;10.20;99.90
21722;DHT22;11023;48.274;7.794;2023-12-22T02:47:48;10.20;99.90
21722;DHT22;11023;48.274;7.794;2023-12-22T02:50:25;10.30;99.90
21722;DHT22;11023;48.274;7.794;2023-12-22T02:52:57;10.30;99.90
21722;DHT22;11023;48.274;7.794;2023-12-22T02:55:23;10.40;99.90
21722;DHT22;11023;48.274;7.794;2023-12-22T02:57:49;10.40;99.90
21722;DHT22;11023;48.274;7.794;2023-12-22T03:00:18;10.40;99.90
21722;DHT22;11023;48.274;7.794;2023-12-22T03:02:47;10.50;99.90
21722;DHT22;11023;48.274;7.794;2023-12-22T03:05:18;10.50;99.90
21722;DHT22;11023;48.274;7.794;2023-12-22T03:07:46;10.50;99.90
21722;DHT22;11023;48.274;7.794;2023-12-22T03:10:21;10.60;99.90
21722;DHT22;11023;48.274;7.794;2023-12-22T03:12:54;10.50;99.90
21722;DHT22;11023;48.274;7.794;2023-12-22T03:15:23;10.40;99.90
21722;DHT22;11023;48.274;7.794;2023-12-22T03:18:02;10.50;99.90
21722;DHT22;11023;48.274;7.794;2023-12-22T03:20:28;10.50;99.90
21722;DHT22;11023;48.274;7.794;2023-12-22T03:22:57;10.50;99.90
21722;DHT22;11023;48.274;7.794;2023-12-22T03:25:32;10.50;99.90
21722;DHT22;11023;48.274;7.794;2023-12-22T03:28:01;10.50;99.90
21722;DHT22;11023;48.274;7.794;2023-12-22T03:30:29;10.60;99.90
21722;DHT22;11023;48.274;7.794;2023-12-22T03:33:01;10.60;99.90
21722;DHT22;11023;48.274;7.794;2023-12-22T03:35:29;10.60;99.90
21722;DHT22;11023;48.274;7.794;2023-12-22T03:38:04;10.50;99.90
21722;DHT22;11023;48.274;7.794;2023-12-22T03:40:30;10.50;99.90
21722;DHT22;11023;48.274;7.794;2023-12-22T03:42:55;10.50;99.90
21722;DHT22;11023;48.274;7.794;2023-12-22T03:45:24;10.50;99.90
21722;DHT22;11023;48.274;7.794;2023-12-22T03:47:50;10.40;99.90
21722;DHT22;11023;48.274;7.794;2023-12-22T03:50:15;10.40;99.90
21722;DHT22;11023;48.274;7.794;2023-12-22T03:52:41;10.40;99.90
21722;DHT22;11023;48.274;7.794;2023-12-22T03:55:09;10.30;99.90
21722;DHT22;11023;48.274;7.794;2023-12-22T03:57:35;10.30;99.90
21722;DHT22;11023;48.274;7.794;2023-12-22T04:00:01;10.20;99.90
21722;DHT22;11023;48.274;7.794;2023-12-22T04:02:29;10.30;99.90
21722;DHT22;11023;48.274;7.794;2023-12-22T04:04:55;10.30;99.90
21722;DHT22;11023;48.274;7.794;2023-12-22T04:07:23;10.40;99.90
21722;DHT22;11023;48.274;7.794;2023-12-22T04:09:53;10.40;99.90
21722;DHT22;11023;48.274;7.794;2023-12-22T04:12:19;10.30;99.90
21722;DHT22;11023;48.274;7.794;2023-12-22T04:14:47;10.40;99.90
21722;DHT22;11023;48.274;7.794;2023-12-22T04:17:13;10.40;99.90
21722;DHT22;11023;48.274;7.794;2023-12-22T04:19:39;10.50;99.90
21722;DHT22;11023;48.274;7.794;2023-12-22T04:22:05;10.50;99.90
21722;DHT22;11023;48.274;7.794;2023-12-22T04:24:35;10.60;99.90
21722;DHT22;11023;48.274;7.794;2023-12-22T04:27:19;10.50;99.90
21722;DHT22;11023;48.274;7.794;2023-12-22T04:29:47;10.50;99.90
21722;DHT22;11023;48.274;7.794;2023-12-22T04:32:13;10.50;99.90
21722;DHT22;11023;48.274;7.794;2023-12-22T04:34:39;10.50;99.90
21722;DHT22;11023;48.274;7.794;2023-12-22T04:37:05;10.50;99.90
21722;DHT22;11023;48.274;7.794;2023-12-22T04:39:31;10.50;99.90
21722;DHT22;11023;48.274;7.794;2023-12-22T04:41:57;10.50;99.90
21722;DHT22;11023;48.274;7.794;2023-12-22T04:44:23;10.40;99.90
21722;DHT22;11023;48.274;7.794;2023-12-22T04:46:49;10.50;99.90
21722;DHT22;11023;48.274;7.794;2023-12-22T04:49:15;10.50;99.90
21722;DHT22;11023;48.274;7.794;2023-12-22T04:51:40;10.50;99.90
21722;DHT22;11023;48.274;7.794;2023-12-22T04:54:06;10.40;99.90
21722;DHT22;11023;48.274;7.794;2023-12-22T04:56:34;10.40;99.90
21722;DHT22;11023;48.274;7.794;2023-12-22T04:58:59;10.40;99.90
21722;DHT22;11023;48.274;7.794;2023-12-22T05:01:25;10.40;99.90
21722;DHT22;11023;48.274;7.794;2023-12-22T05:03:51;10.40;99.90
21722;DHT22;11023;48.274;7.794;2023-12-22T05:06:19;10.40;99.90
21722;DHT22;11023;48.274;7.794;2023-12-22T05:08:45;10.50;99.90
21722;DHT22;11023;48.274;7.794;2023-12-22T05:11:12;10.50;99.90
21722;DHT22;11023;48.274;7.794;2023-12-22T05:13:38;10.60;99.90
21722;DHT22;11023;48.274;7.794;2023-12-22T05:16:04;10.50;99.90
21722;DHT22;11023;48.274;7.794;2023-12-22T05:18:30;10.50;99.90
21722;DHT22;11023;48.274;7.794;2023-12-22T05:20:56;10.40;99.90
21722;DHT22;11023;48.274;7.794;2023-12-22T05:23:23;10.50;99.90
21722;DHT22;11023;48.274;7.794;2023-12-22T05:25:49;10.50;99.90
21722;DHT22;11023;48.274;7.794;2023-12-22T05:28:16;10.50;99.90
21722;DHT22;11023;48.274;7.794;2023-12-22T05:30:42;10.50;99.90
21722;DHT22;11023;48.274;7.794;2023-12-22T05:33:07;10.50;99.90
21722;DHT22;11023;48.274;7.794;2023-12-22T05:35:35;10.50;99.90
21722;DHT22;11023;48.274;7.794;2023-12-22T05:38:01;10.60;99.90
21722;DHT22;11023;48.274;7.794;2023-12-22T05:40:28;10.50;99.90
21722;DHT22;11023;48.274;7.794;2023-12-22T05:42:54;10.60;99.90
21722;DHT22;11023;48.274;7.794;2023-12-22T05:45:20;10.60;99.90
21722;DHT22;11023;48.274;7.794;2023-12-22T05:47:46;10.60;99.90
21722;DHT22;11023;48.274;7.794;2023-12-22T05:50:13;10.50;99.90
21722;DHT22;11023;48.274;7.794;2023-12-22T05:52:42;10.50;99.90
21722;DHT22;11023;48.274;7.794;2023-12-22T05:55:10;10.50;99.90
21722;DHT22;11023;48.274;7.794;2023-12-22T05:57:36;10.50;99.90
21722;DHT22;11023;48.274;7.794;2023-12-22T06:00:06;10.50;99.90
21722;DHT22;11023;48.274;7.794;2023-12-22T06:02:33;10.50;99.90
21722;DHT22;11023;48.274;7.794;2023-12-22T06:04:59;10.40;99.90
21722;DHT22;11023;48.274;7.794;2023-12-22T06:07:26;10.40;99.90
21722;DHT22;11023;48.274;7.794;2023-12-22T06:09:52;10.40;99.90
21722;DHT22;11023;48.274;7.794;2023-12-22T06:12:18;10.40;99.90
21722;DHT22;11023;48.274;7.794;2023-12-22T06:14:44;10.40;99.90
21722;DHT22;11023;48.274;7.794;2023-12-22T06:17:09;10.40;99.90
21722;DHT22;11023;48.274;7.794;2023-12-22T06:19:36;10.40;99.90
21722;DHT22;11023;48.274;7.794;2023-12-22T06:22:02;10.30;99.90
21722;DHT22;11023;48.274;7.794;2023-12-22T06:24:28;10.30;99.90
21722;DHT22;11023;48.274;7.794;2023-12-22T06:26:54;10.30;99.90
21722;DHT22;11023;48.274;7.794;2023-12-22T06:29:20;10.30;99.90
21722;DHT22;11023;48.274;7.794;2023-12-22T06:31:46;10.30;99.90
21722;DHT22;11023;48.274;7.794;2023-12-22T06:34:16;10.30;99.90
21722;DHT22;11023;48.274;7.794;2023-12-22T06:36:44;10.30;99.90
21722;DHT22;11023;48.274;7.794;2023-12-22T06:39:10;10.30;99.90
21722;DHT22;11023;48.274;7.794;2023-12-22T06:41:36;10.30;99.90
21722;DHT22;11023;48.274;7.794;2023-12-22T06:44:01;10.30;99.90
21722;DHT22;11023;48.274;7.794;2023-12-22T06:46:28;10.30;99.90
21722;DHT22;11023;48.274;7.794;2023-12-22T06:48:55;10.30;99.90
21722;DHT22;11023;48.274;7.794;2023-12-22T06:51:23;10.20;99.90
21722;DHT22;11023;48.274;7.794;2023-12-22T06:53:50;10.20;99.90
21722;DHT22;11023;48.274;7.794;2023-12-22T06:56:25;10.10;99.90
21722;DHT22;11023;48.274;7.794;2023-12-22T06:58:53;10.10;99.90
21722;DHT22;11023;48.274;7.794;2023-12-22T07:01:21;10.20;99.90
21722;DHT22;11023;48.274;7.794;2023-12-22T07:03:48;10.20;99.90
21722;DHT22;11023;48.274;7.794;2023-12-22T07:06:21;10.20;99.90
21722;DHT22;11023;48.274;7.794;2023-12-22T07:11:37;10.10;99.90
21722;DHT22;11023;48.274;7.794;2023-12-22T07:14:03;10.00;99.90
21722;DHT22;11023;48.274;7.794;2023-12-22T07:16:28;10.00;99.90
21722;DHT22;11023;48.274;7.794;2023-12-22T07:18:54;9.90;99.90
21722;DHT22;11023;48.274;7.794;2023-12-22T07:21:19;9.90;99.90
21722;DHT22;11023;48.274;7.794;2023-12-22T07:23:45;9.90;99.90
21722;DHT22;11023;48.274;7.794;2023-12-22T07:26:11;9.80;99.90
21722;DHT22;11023;48.274;7.794;2023-12-22T07:28:37;9.70;99.90
21722;DHT22;11023;48.274;7.794;2023-12-22T07:31:03;9.70;99.90
21722;DHT22;11023;48.274;7.794;2023-12-22T07:33:29;9.70;99.90
21722;DHT22;11023;48.274;7.794;2023-12-22T07:35:54;9.70;99.90
21722;DHT22;11023;48.274;7.794;2023-12-22T07:38:20;9.60;99.90
21722;DHT22;11023;48.274;7.794;2023-12-22T07:40:46;9.60;99.90
21722;DHT22;11023;48.274;7.794;2023-12-22T07:43:12;9.60;99.90
21722;DHT22;11023;48.274;7.794;2023-12-22T07:45:38;9.50;99.90
21722;DHT22;11023;48.274;7.794;2023-12-22T07:48:04;9.60;99.90
21722;DHT22;11023;48.274;7.794;2023-12-22T07:50:30;9.50;99.90
21722;DHT22;11023;48.274;7.794;2023-12-22T07:52:55;9.50;99.90
21722;DHT22;11023;48.274;7.794;2023-12-22T07:55:21;9.50;99.90
21722;DHT22;11023;48.274;7.794;2023-12-22T07:57:47;9.50;99.90
21722;DHT22;11023;48.274;7.794;2023-12-22T08:00:13;9.50;99.90
21722;DHT22;11023;48.274;7.794;2023-12-22T08:02:39;9.50;99.90
21722;DHT22;11023;48.274;7.794;2023-12-22T08:05:04;9.50;99.90
21722;DHT22;11023;48.274;7.794;2023-12-22T08:07:30;9.50;99.90
21722;DHT22;11023;48.274;7.794;2023-12-22T08:09:56;9.40;99.90
21722;DHT22;11023;48.274;7.794;2023-12-22T08:12:23;9.30;99.90
21722;DHT22;11023;48.274;7.794;2023-12-22T08:14:48;9.30;99.90
21722;DHT22;11023;48.274;7.794;2023-12-22T08:17:14;9.20;99.90
21722;DHT22;11023;48.274;7.794;2023-12-22T08:19:40;9.20;99.90
21722;DHT22;11023;48.274;7.794;2023-12-22T08:22:11;9.20;99.90
21722;DHT22;11023;48.274;7.794;2023-12-22T08:24:40;9.20;99.90
21722;DHT22;11023;48.274;7.794;2023-12-22T08:27:07;9.10;99.90
21722;DHT22;11023;48.274;7.794;2023-12-22T08:29:33;9.10;99.90
21722;DHT22;11023;48.274;7.794;2023-12-22T08:31:59;9.00;99.90
21722;DHT22;11023;48.274;7.794;2023-12-22T08:34:26;9.00;99.90
21722;DHT22;11023;48.274;7.794;2023-12-22T08:36:51;8.90;99.90
21722;DHT22;11023;48.274;7.794;2023-12-22T08:39:17;8.90;99.90
21722;DHT22;11023;48.274;7.794;2023-12-22T08:41:43;8.90;99.90
21722;DHT22;11023;48.274;7.794;2023-12-22T08:44:09;8.80;99.90
21722;DHT22;11023;48.274;7.794;2023-12-22T08:46:35;8.80;99.90
21722;DHT22;11023;48.274;7.794;2023-12-22T08:49:02;8.80;99.90
21722;DHT22;11023;48.274;7.794;2023-12-22T08:51:28;8.70;99.90
21722;DHT22;11023;48.274;7.794;2023-12-22T08:53:54;8.70;99.90
21722;DHT22;11023;48.274;7.794;2023-12-22T08:56:21;8.70;99.90
21722;DHT22;11023;48.274;7.794;2023-12-22T08:58:47;8.70;99.90
21722;DHT22;11023;48.274;7.794;2023-12-22T09:01:15;8.70;99.90
21722;DHT22;11023;48.274;7.794;2023-12-22T09:03:41;8.80;99.90
21722;DHT22;11023;48.274;7.794;2023-12-22T09:06:17;8.80;99.90
21722;DHT22;11023;48.274;7.794;2023-12-22T09:08:43;8.80;99.90
21722;DHT22;11023;48.274;7.794;2023-12-22T09:11:11;8.80;99.90
21722;DHT22;11023;48.274;7.794;2023-12-22T09:13:37;8.80;99.90
21722;DHT22;11023;48.274;7.794;2023-12-22T09:16:03;8.90;99.90
21722;DHT22;11023;48.274;7.794;2023-12-22T09:18:29;8.90;99.90
21722;DHT22;11023;48.274;7.794;2023-12-22T09:20:54;8.90;99.90
21722;DHT22;11023;48.274;7.794;2023-12-22T09:23:20;8.90;99.90
21722;DHT22;11023;48.274;7.794;2023-12-22T09:25:47;8.90;99.90
21722;DHT22;11023;48.274;7.794;2023-12-22T09:28:12;8.90;99.90
21722;DHT22;11023;48.274;7.794;2023-12-22T09:30:38;9.00;99.90
21722;DHT22;11023;48.274;7.794;2023-12-22T09:33:04;9.00;99.90
21722;DHT22;11023;48.274;7.794;2023-12-22T09:35:29;9.00;99.90
21722;DHT22;11023;48.274;7.794;2023-12-22T09:37:55;9.00;99.90
21722;DHT22;11023;48.274;7.794;2023-12-22T09:40:21;9.00;99.90
21722;DHT22;11023;48.274;7.794;2023-12-22T09:42:50;9.00;99.90
21722;DHT22;11023;48.274;7.794;2023-12-22T09:45:21;9.10;99.90
21722;DHT22;11023;48.274;7.794;2023-12-22T09:47:48;9.00;99.90
21722;DHT22;11023;48.274;7.794;2023-12-22T09:50:15;9.00;99.90
21722;DHT22;11023;48.274;7.794;2023-12-22T09:52:42;9.00;99.90
21722;DHT22;11023;48.274;7.794;2023-12-22T09:55:09;9.00;99.90
21722;DHT22;11023;48.274;7.794;2023-12-22T09:57:37;9.00;99.90
21722;DHT22;11023;48.274;7.794;2023-12-22T10:00:08;9.00;99.90
21722;DHT22;11023;48.274;7.794;2023-12-22T10:02:36;9.00;99.90
21722;DHT22;11023;48.274;7.794;2023-12-22T10:05:02;9.00;99.90
21722;DHT22;11023;48.274;7.794;2023-12-22T10:07:28;9.00;99.90
21722;DHT22;11023;48.274;7.794;2023-12-22T10:09:55;9.00;99.90
21722;DHT22;11023;48.274;7.794;2023-12-22T10:12:22;9.00;99.90
21722;DHT22;11023;48.274;7.794;2023-12-22T10:14:48;9.00;99.90
21722;DHT22;11023;48.274;7.794;2023-12-22T10:17:15;9.00;99.90
21722;DHT22;11023;48.274;7.794;2023-12-22T10:19:42;9.10;99.90
21722;DHT22;11023;48.274;7.794;2023-12-22T10:22:07;9.10;99.90
21722;DHT22;11023;48.274;7.794;2023-12-22T10:24:40;9.10;99.90
21722;DHT22;11023;48.274;7.794;2023-12-22T10:27:10;9.10;99.90
21722;DHT22;11023;48.274;7.794;2023-12-22T10:29:36;9.20;99.90
21722;DHT22;11023;48.274;7.794;2023-12-22T10:32:03;9.20;99.90
21722;DHT22;11023;48.274;7.794;2023-12-22T10:34:30;9.20;99.90
21722;DHT22;11023;48.274;7.794;2023-12-22T10:37:03;9.30;99.90
21722;DHT22;11023;48.274;7.794;2023-12-22T10:39:30;9.30;99.90
21722;DHT22;11023;48.274;7.794;2023-12-22T10:41:59;9.30;99.90
21722;DHT22;11023;48.274;7.794;2023-12-22T10:44:26;9.30;99.90
21722;DHT22;11023;48.274;7.794;2023-12-22T10:46:52;9.30;99.90
21722;DHT22;11023;48.274;7.794;2023-12-22T10:49:19;9.30;99.90
21722;DHT22;11023;48.274;7.794;2023-12-22T10:51:44;9.20;99.90
21722;DHT22;11023;48.274;7.794;2023-12-22T10:54:10;9.10;99.90
21722;DHT22;11023;48.274;7.794;2023-12-22T10:56:36;9.10;99.90
21722;DHT22;11023;48.274;7.794;2023-12-22T10:59:02;9.00;99.90
21722;DHT22;11023;48.274;7.794;2023-12-22T11:01:32;9.00;99.90
21722;DHT22;11023;48.274;7.794;2023-12-22T11:04:05;9.00;99.90
21722;DHT22;11023;48.274;7.794;2023-12-22T11:06:35;9.00;99.90
21722;DHT22;11023;48.274;7.794;2023-12-22T11:09:06;9.00;99.90
21722;DHT22;11023;48.274;7.794;2023-12-22T11:11:36;9.00;99.90
21722;DHT22;11023;48.274;7.794;2023-12-22T11:14:04;9.00;99.90
21722;DHT22;11023;48.274;7.794;2023-12-22T11:16:31;9.10;99.90
21722;DHT22;11023;48.274;7.794;2023-12-22T11:19:02;9.10;99.90
21722;DHT22;11023;48.274;7.794;2023-12-22T11:21:28;9.10;99.90
21722;DHT22;11023;48.274;7.794;2023-12-22T11:23:55;9.10;99.90
21722;DHT22;11023;48.274;7.794;2023-12-22T11:26:22;9.10;99.90
21722;DHT22;11023;48.274;7.794;2023-12-22T11:28:49;9.10;99.90
21722;DHT22;11023;48.274;7.794;2023-12-22T11:31:19;9.10;99.90
21722;DHT22;11023;48.274;7.794;2023-12-22T11:33:50;9.20;99.90
21722;DHT22;11023;48.274;7.794;2023-12-22T11:36:17;9.20;99.90
21722;DHT22;11023;48.274;7.794;2023-12-22T11:38:45;9.20;99.90
21722;DHT22;11023;48.274;7.794;2023-12-22T11:41:17;9.10;99.90
21722;DHT22;11023;48.274;7.794;2023-12-22T11:43:44;9.20;99.90
21722;DHT22;11023;48.274;7.794;2023-12-22T11:46:11;9.20;99.90
21722;DHT22;11023;48.274;7.794;2023-12-22T11:48:37;9.20;99.90
21722;DHT22;11023;48.274;7.794;2023-12-22T11:51:15;9.20;99.90
21722;DHT22;11023;48.274;7.794;2023-12-22T11:53:41;9.20;99.90
21722;DHT22;11023;48.274;7.794;2023-12-22T11:56:08;9.20;99.90
21722;DHT22;11023;48.274;7.794;2023-12-22T12:01:14;9.20;99.90
21722;DHT22;11023;48.274;7.794;2023-12-22T12:03:53;9.20;99.90
21722;DHT22;11023;48.274;7.794;2023-12-22T12:06:39;9.30;99.90
21722;DHT22;11023;48.274;7.794;2023-12-22T12:09:06;9.30;99.90
21722;DHT22;11023;48.274;7.794;2023-12-22T12:14:31;9.30;99.90
21722;DHT22;11023;48.274;7.794;2023-12-22T12:17:05;9.40;99.90
21722;DHT22;11023;48.274;7.794;2023-12-22T12:19:34;9.40;99.90
21722;DHT22;11023;48.274;7.794;2023-12-22T12:22:00;9.40;99.90
21722;DHT22;11023;48.274;7.794;2023-12-22T12:24:26;9.40;99.90
21722;DHT22;11023;48.274;7.794;2023-12-22T12:26:52;9.40;99.90
21722;DHT22;11023;48.274;7.794;2023-12-22T12:29:20;9.40;99.90
21722;DHT22;11023;48.274;7.794;2023-12-22T12:31:47;9.40;99.90
21722;DHT22;11023;48.274;7.794;2023-12-22T12:34:13;9.40;99.90
21722;DHT22;11023;48.274;7.794;2023-12-22T12:36:40;9.40;99.90
21722;DHT22;11023;48.274;7.794;2023-12-22T12:39:07;9.40;99.90
21722;DHT22;11023;48.274;7.794;2023-12-22T12:41:36;9.40;99.90
21722;DHT22;11023;48.274;7.794;2023-12-22T12:44:05;9.50;99.90
21722;DHT22;11023;48.274;7.794;2023-12-22T12:46:38;9.50;99.90
21722;DHT22;11023;48.274;7.794;2023-12-22T12:49:11;9.50;99.90
21722;DHT22;11023;48.274;7.794;2023-12-22T12:51:49;9.60;99.90
21722;DHT22;11023;48.274;7.794;2023-12-22T12:54:15;9.60;99.90
21722;DHT22;11023;48.274;7.794;2023-12-22T12:56:43;9.60;99.90
21722;DHT22;11023;48.274;7.794;2023-12-22T12:59:12;9.60;99.90
21722;DHT22;11023;48.274;7.794;2023-12-22T13:01:42;9.60;99.90
21722;DHT22;11023;48.274;7.794;2023-12-22T13:04:09;9.60;99.90
21722;DHT22;11023;48.274;7.794;2023-12-22T13:06:35;9.60;99.90
21722;DHT22;11023;48.274;7.794;2023-12-22T13:09:01;9.70;99.90
21722;DHT22;11023;48.274;7.794;2023-12-22T13:11:30;9.70;99.90
21722;DHT22;11023;48.274;7.794;2023-12-22T13:13:56;9.70;99.90
21722;DHT22;11023;48.274;7.794;2023-12-22T13:16:24;9.70;99.90
21722;DHT22;11023;48.274;7.794;2023-12-22T13:19:00;9.70;99.90
21722;DHT22;11023;48.274;7.794;2023-12-22T13:21:28;9.80;99.90
21722;DHT22;11023;48.274;7.794;2023-12-22T13:24:14;9.70;99.90
21722;DHT22;11023;48.274;7.794;2023-12-22T13:26:41;9.70;99.90
21722;DHT22;11023;48.274;7.794;2023-12-22T13:29:08;9.70;99.90
21722;DHT22;11023;48.274;7.794;2023-12-22T13:31:43;9.70;99.90
21722;DHT22;11023;48.274;7.794;2023-12-22T13:34:13;9.80;99.90
21722;DHT22;11023;48.274;7.794;2023-12-22T13:36:40;9.80;99.90
21722;DHT22;11023;48.274;7.794;2023-12-22T13:39:11;9.80;99.90
21722;DHT22;11023;48.274;7.794;2023-12-22T13:41:40;9.80;99.90
21722;DHT22;11023;48.274;7.794;2023-12-22T13:44:10;9.80;99.90
21722;DHT22;11023;48.274;7.794;2023-12-22T13:46:36;9.80;99.90
21722;DHT22;11023;48.274;7.794;2023-12-22T13:49:03;9.80;99.90
21722;DHT22;11023;48.274;7.794;2023-12-22T13:51:41;9.90;99.90
21722;DHT22;11023;48.274;7.794;2023-12-22T13:54:07;9.90;99.90
21722;DHT22;11023;48.274;7.794;2023-12-22T13:56:37;9.90;99.90
21722;DHT22;11023;48.274;7.794;2023-12-22T13:59:05;9.90;99.90
21722;DHT22;11023;48.274;7.794;2023-12-22T14:01:31;9.90;99.90
21722;DHT22;11023;48.274;7.794;2023-12-22T14:03:58;9.90;99.90
21722;DHT22;11023;48.274;7.794;2023-12-22T14:06:26;9.90;99.90
21722;DHT22;11023;48.274;7.794;2023-12-22T14:08:53;9.90;99.90
21722;DHT22;11023;48.274;7.794;2023-12-22T14:11:19;10.00;99.90
21722;DHT22;11023;48.274;7.794;2023-12-22T14:13:45;10.00;99.90
21722;DHT22;11023;48.274;7.794;2023-12-22T14:16:10;10.00;99.90
21722;DHT22;11023;48.274;7.794;2023-12-22T14:18:38;10.00;99.90
21722;DHT22;11023;48.274;7.794;2023-12-22T14:21:04;10.00;99.90
21722;DHT22;11023;48.274;7.794;2023-12-22T14:23:31;10.00;99.90
21722;DHT22;11023;48.274;7.794;2023-12-22T14:25:56;10.00;99.90
21722;DHT22;11023;48.274;7.794;2023-12-22T14:28:25;10.00;99.90
21722;DHT22;11023;48.274;7.794;2023-12-22T14:30:51;10.00;99.90
21722;DHT22;11023;48.274;7.794;2023-12-22T14:33:17;10.00;99.90
21722;DHT22;11023;48.274;7.794;2023-12-22T14:35:42;10.00;99.90
21722;DHT22;11023;48.274;7.794;2023-12-22T14:38:08;10.00;99.90
21722;DHT22;11023;48.274;7.794;2023-12-22T14:40:34;9.90;99.90
21722;DHT22;11023;48.274;7.794;2023-12-22T14:42:59;9.90;99.90
21722;DHT22;11023;48.274;7.794;2023-12-22T14:45:27;9.90;99.90
21722;DHT22;11023;48.274;7.794;2023-12-22T14:47:53;9.90;99.90
21722;DHT22;11023;48.274;7.794;2023-12-22T14:50:19;9.80;99.90
21722;DHT22;11023;48.274;7.794;2023-12-22T14:52:45;9.90;99.90
21722;DHT22;11023;48.274;7.794;2023-12-22T14:55:11;9.90;99.90
21722;DHT22;11023;48.274;7.794;2023-12-22T14:57:37;9.90;99.90
21722;DHT22;11023;48.274;7.794;2023-12-22T15:00:04;9.80;99.90
21722;DHT22;11023;48.274;7.794;2023-12-22T15:02:29;9.80;99.90
21722;DHT22;11023;48.274;7.794;2023-12-22T15:04:55;9.80;99.90
21722;DHT22;11023;48.274;7.794;2023-12-22T15:07:21;9.80;99.90
21722;DHT22;11023;48.274;7.794;2023-12-22T15:09:47;9.80;99.90
21722;DHT22;11023;48.274;7.794;2023-12-22T15:12:16;9.80;99.90
21722;DHT22;11023;48.274;7.794;2023-12-22T15:14:45;9.80;99.90
21722;DHT22;11023;48.274;7.794;2023-12-22T15:17:11;9.80;99.90
21722;DHT22;11023;48.274;7.794;2023-12-22T15:19:43;9.80;99.90
21722;DHT22;11023;48.274;7.794;2023-12-22T15:22:10;9.80;99.90
21722;DHT22;11023;48.274;7.794;2023-12-22T15:24:43;9.80;99.90
21722;DHT22;11023;48.274;7.794;2023-12-22T15:27:11;9.80;99.90
21722;DHT22;11023;48.274;7.794;2023-12-22T15:29:37;9.80;99.90
21722;DHT22;11023;48.274;7.794;2023-12-22T15:32:03;9.80;99.90
21722;DHT22;11023;48.274;7.794;2023-12-22T15:34:28;9.80;99.90
21722;DHT22;11023;48.274;7.794;2023-12-22T15:36:54;9.90;99.90
21722;DHT22;11023;48.274;7.794;2023-12-22T15:39:20;9.80;99.90
21722;DHT22;11023;48.274;7.794;2023-12-22T15:41:49;9.80;99.90
21722;DHT22;11023;48.274;7.794;2023-12-22T15:44:15;9.90;99.90
21722;DHT22;11023;48.274;7.794;2023-12-22T15:46:41;9.90;99.90
21722;DHT22;11023;48.274;7.794;2023-12-22T15:49:06;10.00;99.90
21722;DHT22;11023;48.274;7.794;2023-12-22T15:51:32;10.00;99.90